sensor_id;sensor_type;location;lat;lon;timestamp;P1;durP1;ratioP1;P2;durP2;ratioP2
60292;SDS011;52402;52.670;6.750;2022-09-13T00:01:45;24.27;;;22.00;;
60292;SDS011;52402;52.670;6.750;2022-09-13T00:04:11;23.02;;;20.83;;
60292;SDS011;52402;52.670;6.750;2022-09-13T00:06:37;25.20;;;21.67;;
60292;SDS011;52402;52.670;6.750;2022-09-13T00:09:03;26.42;;;23.85;;
60292;SDS011;52402;52.670;6.750;2022-09-13T00:11:29;25.40;;;23.00;;
60292;SDS011;52402;52.670;6.750;2022-09-13T00:13:55;27.23;;;24.55;;
60292;SDS011;52402;52.670;6.750;2022-09-13T00:16:24;25.20;;;22.83;;
60292;SDS011;52402;52.670;6.750;2022-09-13T00:18:51;26.60;;;24.00;;
60292;SDS011;52402;52.670;6.750;2022-09-13T00:21:18;26.73;;;24.27;;
60292;SDS011;52402;52.670;6.750;2022-09-13T00:23:46;24.70;;;22.33;;
60292;SDS011;52402;52.670;6.750;2022-09-13T00:26:15;27.50;;;24.83;;
60292;SDS011;52402;52.670;6.750;2022-09-13T00:28:43;25.83;;;23.33;;
60292;SDS011;52402;52.670;6.750;2022-09-13T00:31:12;28.00;;;23.97;;
60292;SDS011;52402;52.670;6.750;2022-09-13T00:33:38;23.58;;;21.27;;
60292;SDS011;52402;52.670;6.750;2022-09-13T00:36:08;24.10;;;21.80;;
60292;SDS011;52402;52.670;6.750;2022-09-13T00:38:35;24.45;;;22.15;;
60292;SDS011;52402;52.670;6.750;2022-09-13T00:41:05;26.70;;;24.17;;
60292;SDS011;52402;52.670;6.750;2022-09-13T00:43:46;25.85;;;23.48;;
60292;SDS011;52402;52.670;6.750;2022-09-13T00:46:15;25.98;;;23.50;;
60292;SDS011;52402;52.670;6.750;2022-09-13T00:48:49;23.85;;;21.48;;
60292;SDS011;52402;52.670;6.750;2022-09-13T00:53:46;25.42;;;22.92;;
60292;SDS011;52402;52.670;6.750;2022-09-13T00:56:21;28.02;;;25.02;;
60292;SDS011;52402;52.670;6.750;2022-09-13T00:58:59;27.05;;;24.40;;
60292;SDS011;52402;52.670;6.750;2022-09-13T01:01:40;26.90;;;24.27;;
60292;SDS011;52402;52.670;6.750;2022-09-13T01:04:11;29.35;;;25.95;;
60292;SDS011;52402;52.670;6.750;2022-09-13T01:06:36;28.33;;;25.52;;
60292;SDS011;52402;52.670;6.750;2022-09-13T01:09:04;29.08;;;26.20;;
60292;SDS011;52402;52.670;6.750;2022-09-13T01:14:24;28.90;;;24.98;;
60292;SDS011;52402;52.670;6.750;2022-09-13T01:16:51;27.63;;;24.88;;
60292;SDS011;52402;52.670;6.750;2022-09-13T01:19:18;27.42;;;24.67;;
60292;SDS011;52402;52.670;6.750;2022-09-13T01:38:34;31.50;;;28.23;;
60292;SDS011;52402;52.670;6.750;2022-09-13T01:44:14;29.35;;;26.45;;
60292;SDS011;52402;52.670;6.750;2022-09-13T01:49:54;30.38;;;27.20;;
60292;SDS011;52402;52.670;6.750;2022-09-13T01:52:36;28.17;;;25.33;;
60292;SDS011;52402;52.670;6.750;2022-09-13T01:55:29;32.30;;;28.98;;
60292;SDS011;52402;52.670;6.750;2022-09-13T02:03:10;31.95;;;28.60;;
60292;SDS011;52402;52.670;6.750;2022-09-13T02:05:56;31.58;;;28.33;;
60292;SDS011;52402;52.670;6.750;2022-09-13T02:08:38;30.25;;;27.35;;
60292;SDS011;52402;52.670;6.750;2022-09-13T02:11:15;30.23;;;27.23;;
60292;SDS011;52402;52.670;6.750;2022-09-13T02:13:52;33.42;;;29.52;;
60292;SDS011;52402;52.670;6.750;2022-09-13T02:16:40;32.08;;;28.80;;
60292;SDS011;52402;52.670;6.750;2022-09-13T02:19:15;32.50;;;29.15;;
60292;SDS011;52402;52.670;6.750;2022-09-13T02:21:45;34.88;;;31.10;;
60292;SDS011;52402;52.670;6.750;2022-09-13T02:24:21;32.20;;;29.10;;
60292;SDS011;52402;52.670;6.750;2022-09-13T02:26:50;34.50;;;30.77;;
60292;SDS011;52402;52.670;6.750;2022-09-13T02:29:19;34.83;;;31.30;;
60292;SDS011;52402;52.670;6.750;2022-09-13T02:31:50;38.55;;;34.75;;
60292;SDS011;52402;52.670;6.750;2022-09-13T02:34:54;37.28;;;33.33;;
60292;SDS011;52402;52.670;6.750;2022-09-13T02:37:18;38.03;;;34.03;;
60292;SDS011;52402;52.670;6.750;2022-09-13T02:39:48;39.05;;;35.10;;
60292;SDS011;52402;52.670;6.750;2022-09-13T02:42:20;36.97;;;33.20;;
60292;SDS011;52402;52.670;6.750;2022-09-13T02:44:53;40.35;;;36.30;;
60292;SDS011;52402;52.670;6.750;2022-09-13T03:01:21;39.25;;;35.25;;
60292;SDS011;52402;52.670;6.750;2022-09-13T03:03:48;45.13;;;40.35;;
60292;SDS011;52402;52.670;6.750;2022-09-13T03:06:24;43.28;;;38.67;;
60292;SDS011;52402;52.670;6.750;2022-09-13T03:08:55;40.60;;;36.42;;
60292;SDS011;52402;52.670;6.750;2022-09-13T03:24:51;42.92;;;38.50;;
60292;SDS011;52402;52.670;6.750;2022-09-13T03:27:30;46.45;;;40.25;;
60292;SDS011;52402;52.670;6.750;2022-09-13T03:30:10;42.65;;;38.25;;
60292;SDS011;52402;52.670;6.750;2022-09-13T03:32:49;40.90;;;36.70;;
60292;SDS011;52402;52.670;6.750;2022-09-13T03:38:04;41.50;;;37.30;;
60292;SDS011;52402;52.670;6.750;2022-09-13T03:40:51;44.67;;;39.25;;
60292;SDS011;52402;52.670;6.750;2022-09-13T03:43:27;36.00;;;32.40;;
60292;SDS011;52402;52.670;6.750;2022-09-13T03:46:01;40.38;;;36.20;;
60292;SDS011;52402;52.670;6.750;2022-09-13T03:48:31;40.63;;;36.25;;
60292;SDS011;52402;52.670;6.750;2022-09-13T03:51:01;43.53;;;38.38;;
60292;SDS011;52402;52.670;6.750;2022-09-13T03:53:29;42.55;;;38.03;;
60292;SDS011;52402;52.670;6.750;2022-09-13T03:55:57;42.67;;;38.17;;
60292;SDS011;52402;52.670;6.750;2022-09-13T03:58:23;46.25;;;40.00;;
60292;SDS011;52402;52.670;6.750;2022-09-13T04:00:50;41.78;;;37.55;;
60292;SDS011;52402;52.670;6.750;2022-09-13T04:03:17;45.80;;;40.50;;
60292;SDS011;52402;52.670;6.750;2022-09-13T04:05:42;41.50;;;36.97;;
60292;SDS011;52402;52.670;6.750;2022-09-13T04:08:08;42.47;;;37.97;;
60292;SDS011;52402;52.670;6.750;2022-09-13T04:10:34;48.70;;;42.45;;
60292;SDS011;52402;52.670;6.750;2022-09-13T04:13:01;40.38;;;36.25;;
60292;SDS011;52402;52.670;6.750;2022-09-13T04:15:28;41.28;;;37.08;;
60292;SDS011;52402;52.670;6.750;2022-09-13T04:17:57;41.67;;;37.13;;
60292;SDS011;52402;52.670;6.750;2022-09-13T04:20:23;43.15;;;38.60;;
60292;SDS011;52402;52.670;6.750;2022-09-13T04:22:53;46.55;;;39.85;;
60292;SDS011;52402;52.670;6.750;2022-09-13T04:25:20;41.00;;;36.63;;
60292;SDS011;52402;52.670;6.750;2022-09-13T04:27:46;44.70;;;39.90;;
60292;SDS011;52402;52.670;6.750;2022-09-13T04:30:13;41.17;;;36.92;;
60292;SDS011;52402;52.670;6.750;2022-09-13T04:32:41;41.10;;;36.90;;
60292;SDS011;52402;52.670;6.750;2022-09-13T04:35:07;40.15;;;35.90;;
60292;SDS011;52402;52.670;6.750;2022-09-13T04:37:33;43.50;;;38.17;;
60292;SDS011;52402;52.670;6.750;2022-09-13T04:39:59;44.80;;;39.72;;
60292;SDS011;52402;52.670;6.750;2022-09-13T04:42:24;41.10;;;36.75;;
60292;SDS011;52402;52.670;6.750;2022-09-13T04:44:50;45.10;;;40.25;;
60292;SDS011;52402;52.670;6.750;2022-09-13T04:47:16;43.83;;;38.55;;
60292;SDS011;52402;52.670;6.750;2022-09-13T04:49:41;47.30;;;40.35;;
60292;SDS011;52402;52.670;6.750;2022-09-13T04:52:08;43.95;;;39.25;;
60292;SDS011;52402;52.670;6.750;2022-09-13T04:54:34;52.15;;;41.47;;
60292;SDS011;52402;52.670;6.750;2022-09-13T04:56:59;41.00;;;36.38;;
60292;SDS011;52402;52.670;6.750;2022-09-13T04:59:25;39.53;;;35.42;;
60292;SDS011;52402;52.670;6.750;2022-09-13T05:01:50;41.28;;;36.17;;
60292;SDS011;52402;52.670;6.750;2022-09-13T05:04:16;46.17;;;41.25;;
60292;SDS011;52402;52.670;6.750;2022-09-13T05:06:42;40.72;;;35.53;;
60292;SDS011;52402;52.670;6.750;2022-09-13T05:09:09;44.10;;;39.40;;
60292;SDS011;52402;52.670;6.750;2022-09-13T05:11:37;42.97;;;38.60;;
60292;SDS011;52402;52.670;6.750;2022-09-13T05:14:03;42.95;;;38.35;;
60292;SDS011;52402;52.670;6.750;2022-09-13T05:16:30;48.65;;;41.03;;
60292;SDS011;52402;52.670;6.750;2022-09-13T05:18:56;39.97;;;35.88;;
60292;SDS011;52402;52.670;6.750;2022-09-13T05:21:22;41.40;;;37.10;;
60292;SDS011;52402;52.670;6.750;2022-09-13T05:23:49;43.88;;;39.28;;
60292;SDS011;52402;52.670;6.750;2022-09-13T05:26:15;49.35;;;41.67;;
60292;SDS011;52402;52.670;6.750;2022-09-13T05:28:41;42.88;;;38.22;;
60292;SDS011;52402;52.670;6.750;2022-09-13T05:31:16;41.25;;;36.83;;
60292;SDS011;52402;52.670;6.750;2022-09-13T05:33:44;42.08;;;37.60;;
60292;SDS011;52402;52.670;6.750;2022-09-13T05:36:11;43.70;;;39.00;;
60292;SDS011;52402;52.670;6.750;2022-09-13T05:38:37;44.20;;;39.42;;
60292;SDS011;52402;52.670;6.750;2022-09-13T05:41:03;41.88;;;37.38;;
60292;SDS011;52402;52.670;6.750;2022-09-13T05:43:30;41.53;;;36.45;;
60292;SDS011;52402;52.670;6.750;2022-09-13T05:46:05;43.28;;;38.65;;
60292;SDS011;52402;52.670;6.750;2022-09-13T05:48:34;38.97;;;35.03;;
60292;SDS011;52402;52.670;6.750;2022-09-13T05:51:03;40.83;;;36.58;;
60292;SDS011;52402;52.670;6.750;2022-09-13T05:53:32;42.08;;;37.67;;
60292;SDS011;52402;52.670;6.750;2022-09-13T05:56:02;45.95;;;40.25;;
60292;SDS011;52402;52.670;6.750;2022-09-13T05:58:27;41.10;;;36.80;;
60292;SDS011;52402;52.670;6.750;2022-09-13T06:00:53;39.35;;;35.28;;
60292;SDS011;52402;52.670;6.750;2022-09-13T06:03:21;38.22;;;34.15;;
60292;SDS011;52402;52.670;6.750;2022-09-13T06:05:47;42.70;;;38.05;;
60292;SDS011;52402;52.670;6.750;2022-09-13T06:08:15;44.15;;;38.97;;
60292;SDS011;52402;52.670;6.750;2022-09-13T06:10:41;36.53;;;32.67;;
60292;SDS011;52402;52.670;6.750;2022-09-13T06:13:06;37.67;;;33.88;;
60292;SDS011;52402;52.670;6.750;2022-09-13T06:15:32;40.83;;;36.65;;
60292;SDS011;52402;52.670;6.750;2022-09-13T06:17:58;43.17;;;37.33;;
60292;SDS011;52402;52.670;6.750;2022-09-13T06:20:23;43.95;;;39.25;;
60292;SDS011;52402;52.670;6.750;2022-09-13T06:22:49;44.20;;;39.63;;
60292;SDS011;52402;52.670;6.750;2022-09-13T06:25:15;50.58;;;43.67;;
60292;SDS011;52402;52.670;6.750;2022-09-13T06:27:41;43.17;;;38.88;;
60292;SDS011;52402;52.670;6.750;2022-09-13T06:30:06;46.72;;;41.67;;
60292;SDS011;52402;52.670;6.750;2022-09-13T06:32:33;40.47;;;36.55;;
60292;SDS011;52402;52.670;6.750;2022-09-13T06:35:00;44.45;;;39.85;;
60292;SDS011;52402;52.670;6.750;2022-09-13T06:37:26;41.88;;;37.78;;
60292;SDS011;52402;52.670;6.750;2022-09-13T06:39:52;40.45;;;36.30;;
60292;SDS011;52402;52.670;6.750;2022-09-13T06:42:19;40.17;;;35.97;;
60292;SDS011;52402;52.670;6.750;2022-09-13T06:44:44;38.60;;;34.75;;
60292;SDS011;52402;52.670;6.750;2022-09-13T06:47:12;40.40;;;35.80;;
60292;SDS011;52402;52.670;6.750;2022-09-13T06:49:38;35.78;;;32.13;;
60292;SDS011;52402;52.670;6.750;2022-09-13T06:52:05;36.80;;;33.15;;
60292;SDS011;52402;52.670;6.750;2022-09-13T06:54:30;35.25;;;31.77;;
60292;SDS011;52402;52.670;6.750;2022-09-13T06:56:56;34.15;;;30.77;;
60292;SDS011;52402;52.670;6.750;2022-09-13T06:59:22;35.00;;;31.58;;
60292;SDS011;52402;52.670;6.750;2022-09-13T07:01:48;32.40;;;29.10;;
60292;SDS011;52402;52.670;6.750;2022-09-13T07:04:14;36.53;;;32.63;;
60292;SDS011;52402;52.670;6.750;2022-09-13T07:06:44;34.10;;;30.35;;
60292;SDS011;52402;52.670;6.750;2022-09-13T07:09:12;27.42;;;24.65;;
60292;SDS011;52402;52.670;6.750;2022-09-13T07:11:42;25.08;;;22.50;;
60292;SDS011;52402;52.670;6.750;2022-09-13T07:14:12;23.55;;;21.05;;
60292;SDS011;52402;52.670;6.750;2022-09-13T07:16:39;19.25;;;17.13;;
60292;SDS011;52402;52.670;6.750;2022-09-13T07:19:06;18.35;;;16.35;;
60292;SDS011;52402;52.670;6.750;2022-09-13T07:21:36;17.50;;;15.70;;
60292;SDS011;52402;52.670;6.750;2022-09-13T07:24:01;14.93;;;12.95;;
60292;SDS011;52402;52.670;6.750;2022-09-13T07:26:28;13.48;;;11.15;;
60292;SDS011;52402;52.670;6.750;2022-09-13T07:28:56;11.10;;;8.32;;
60292;SDS011;52402;52.670;6.750;2022-09-13T07:31:24;9.77;;;7.70;;
60292;SDS011;52402;52.670;6.750;2022-09-13T07:33:56;8.98;;;7.57;;
60292;SDS011;52402;52.670;6.750;2022-09-13T07:36:23;12.60;;;7.43;;
60292;SDS011;52402;52.670;6.750;2022-09-13T07:38:49;9.55;;;7.32;;
60292;SDS011;52402;52.670;6.750;2022-09-13T07:41:16;13.15;;;7.63;;
60292;SDS011;52402;52.670;6.750;2022-09-13T07:43:44;9.95;;;7.35;;
60292;SDS011;52402;52.670;6.750;2022-09-13T07:46:10;10.85;;;6.18;;
60292;SDS011;52402;52.670;6.750;2022-09-13T07:48:38;10.27;;;6.85;;
60292;SDS011;52402;52.670;6.750;2022-09-13T07:51:07;9.43;;;5.13;;
60292;SDS011;52402;52.670;6.750;2022-09-13T07:53:35;8.63;;;5.13;;
60292;SDS011;52402;52.670;6.750;2022-09-13T07:58:29;10.43;;;5.20;;
60292;SDS011;52402;52.670;6.750;2022-09-13T08:00:56;8.80;;;5.50;;
60292;SDS011;52402;52.670;6.750;2022-09-13T08:03:28;9.25;;;5.50;;
60292;SDS011;52402;52.670;6.750;2022-09-13T08:05:54;8.45;;;5.13;;
60292;SDS011;52402;52.670;6.750;2022-09-13T08:08:20;10.85;;;6.45;;
60292;SDS011;52402;52.670;6.750;2022-09-13T08:10:46;8.32;;;5.50;;
60292;SDS011;52402;52.670;6.750;2022-09-13T08:13:12;10.05;;;5.85;;
60292;SDS011;52402;52.670;6.750;2022-09-13T08:15:39;9.30;;;5.50;;
60292;SDS011;52402;52.670;6.750;2022-09-13T08:18:05;8.90;;;4.38;;
60292;SDS011;52402;52.670;6.750;2022-09-13T08:20:34;8.30;;;4.32;;
60292;SDS011;52402;52.670;6.750;2022-09-13T08:23:03;10.05;;;4.15;;
60292;SDS011;52402;52.670;6.750;2022-09-13T08:25:34;8.60;;;4.00;;
60292;SDS011;52402;52.670;6.750;2022-09-13T08:30:55;10.07;;;4.53;;
60292;SDS011;52402;52.670;6.750;2022-09-13T08:33:26;6.97;;;4.10;;
60292;SDS011;52402;52.670;6.750;2022-09-13T08:35:51;9.98;;;4.15;;
60292;SDS011;52402;52.670;6.750;2022-09-13T08:38:19;7.55;;;3.63;;
60292;SDS011;52402;52.670;6.750;2022-09-13T08:44:11;12.32;;;4.03;;
60292;SDS011;52402;52.670;6.750;2022-09-13T08:46:50;7.63;;;4.78;;
60292;SDS011;52402;52.670;6.750;2022-09-13T08:49:43;7.60;;;3.40;;
60292;SDS011;52402;52.670;6.750;2022-09-13T08:52:30;7.38;;;3.00;;
60292;SDS011;52402;52.670;6.750;2022-09-13T08:55:01;9.65;;;3.65;;
60292;SDS011;52402;52.670;6.750;2022-09-13T08:57:42;8.85;;;3.50;;
60292;SDS011;52402;52.670;6.750;2022-09-13T09:05:30;8.32;;;2.60;;
60292;SDS011;52402;52.670;6.750;2022-09-13T09:08:01;6.43;;;2.72;;
60292;SDS011;52402;52.670;6.750;2022-09-13T09:10:47;9.13;;;2.80;;
60292;SDS011;52402;52.670;6.750;2022-09-13T09:21:44;7.10;;;2.25;;
60292;SDS011;52402;52.670;6.750;2022-09-13T09:24:21;8.18;;;2.63;;
60292;SDS011;52402;52.670;6.750;2022-09-13T09:26:47;5.97;;;1.95;;
60292;SDS011;52402;52.670;6.750;2022-09-13T09:29:17;5.80;;;2.10;;
60292;SDS011;52402;52.670;6.750;2022-09-13T09:35:34;6.13;;;1.63;;
60292;SDS011;52402;52.670;6.750;2022-09-13T09:38:31;5.05;;;2.05;;
60292;SDS011;52402;52.670;6.750;2022-09-13T09:40:57;6.88;;;2.05;;
60292;SDS011;52402;52.670;6.750;2022-09-13T09:43:31;10.35;;;2.17;;
60292;SDS011;52402;52.670;6.750;2022-09-13T09:46:16;5.82;;;2.30;;
60292;SDS011;52402;52.670;6.750;2022-09-13T09:48:48;5.13;;;1.88;;
60292;SDS011;52402;52.670;6.750;2022-09-13T09:51:18;7.28;;;1.85;;
60292;SDS011;52402;52.670;6.750;2022-09-13T09:53:47;4.43;;;1.83;;
60292;SDS011;52402;52.670;6.750;2022-09-13T09:56:22;5.88;;;2.00;;
60292;SDS011;52402;52.670;6.750;2022-09-13T09:58:54;7.25;;;2.00;;
60292;SDS011;52402;52.670;6.750;2022-09-13T10:01:24;4.30;;;1.98;;
60292;SDS011;52402;52.670;6.750;2022-09-13T10:03:51;5.47;;;1.90;;
60292;SDS011;52402;52.670;6.750;2022-09-13T10:06:19;8.73;;;2.00;;
60292;SDS011;52402;52.670;6.750;2022-09-13T10:08:57;6.07;;;1.67;;
60292;SDS011;52402;52.670;6.750;2022-09-13T10:17:02;4.03;;;1.60;;
60292;SDS011;52402;52.670;6.750;2022-09-13T10:19:29;5.00;;;1.50;;
60292;SDS011;52402;52.670;6.750;2022-09-13T10:24:27;5.18;;;1.77;;
60292;SDS011;52402;52.670;6.750;2022-09-13T10:26:53;4.57;;;1.50;;
60292;SDS011;52402;52.670;6.750;2022-09-13T10:29:19;4.53;;;1.30;;
60292;SDS011;52402;52.670;6.750;2022-09-13T10:31:48;4.30;;;1.40;;
60292;SDS011;52402;52.670;6.750;2022-09-13T10:37:05;5.93;;;1.33;;
60292;SDS011;52402;52.670;6.750;2022-09-13T10:40:01;4.60;;;1.13;;
60292;SDS011;52402;52.670;6.750;2022-09-13T10:42:28;5.70;;;1.52;;
60292;SDS011;52402;52.670;6.750;2022-09-13T10:45:02;5.05;;;1.42;;
60292;SDS011;52402;52.670;6.750;2022-09-13T10:50:09;3.45;;;1.05;;
60292;SDS011;52402;52.670;6.750;2022-09-13T10:52:49;4.78;;;1.10;;
60292;SDS011;52402;52.670;6.750;2022-09-13T10:57:43;3.70;;;1.38;;
60292;SDS011;52402;52.670;6.750;2022-09-13T11:00:11;4.22;;;1.27;;
60292;SDS011;52402;52.670;6.750;2022-09-13T11:05:29;3.20;;;1.10;;
60292;SDS011;52402;52.670;6.750;2022-09-13T11:33:40;4.63;;;1.20;;
60292;SDS011;52402;52.670;6.750;2022-09-13T11:39:12;5.18;;;1.20;;
60292;SDS011;52402;52.670;6.750;2022-09-13T11:42:18;4.13;;;1.20;;
60292;SDS011;52402;52.670;6.750;2022-09-13T11:50:22;5.28;;;1.70;;
60292;SDS011;52402;52.670;6.750;2022-09-13T11:55:28;4.78;;;1.27;;
60292;SDS011;52402;52.670;6.750;2022-09-13T11:58:03;3.22;;;1.30;;
60292;SDS011;52402;52.670;6.750;2022-09-13T12:00:35;4.32;;;1.30;;
60292;SDS011;52402;52.670;6.750;2022-09-13T12:05:40;5.35;;;1.50;;
60292;SDS011;52402;52.670;6.750;2022-09-13T12:08:26;9.15;;;1.75;;
60292;SDS011;52402;52.670;6.750;2022-09-13T12:11:08;7.63;;;1.20;;
60292;SDS011;52402;52.670;6.750;2022-09-13T12:13:45;6.57;;;1.38;;
60292;SDS011;52402;52.670;6.750;2022-09-13T12:16:15;3.95;;;1.20;;
60292;SDS011;52402;52.670;6.750;2022-09-13T12:19:45;6.15;;;1.75;;
60292;SDS011;52402;52.670;6.750;2022-09-13T12:21:55;5.18;;;1.20;;
60292;SDS011;52402;52.670;6.750;2022-09-13T12:24:37;5.90;;;1.30;;
60292;SDS011;52402;52.670;6.750;2022-09-13T12:29:59;5.07;;;1.10;;
60292;SDS011;52402;52.670;6.750;2022-09-13T12:32:41;5.95;;;1.35;;
60292;SDS011;52402;52.670;6.750;2022-09-13T12:35:23;4.63;;;1.10;;
60292;SDS011;52402;52.670;6.750;2022-09-13T12:38:00;4.53;;;1.20;;
60292;SDS011;52402;52.670;6.750;2022-09-13T12:48:56;4.57;;;1.17;;
60292;SDS011;52402;52.670;6.750;2022-09-13T13:02:51;3.58;;;1.00;;
60292;SDS011;52402;52.670;6.750;2022-09-13T13:05:42;4.90;;;1.25;;
60292;SDS011;52402;52.670;6.750;2022-09-13T13:10:44;5.13;;;1.05;;
60292;SDS011;52402;52.670;6.750;2022-09-13T13:13:38;4.05;;;1.00;;
60292;SDS011;52402;52.670;6.750;2022-09-13T13:18:58;4.45;;;1.00;;
60292;SDS011;52402;52.670;6.750;2022-09-13T13:21:33;4.80;;;1.00;;
60292;SDS011;52402;52.670;6.750;2022-09-13T13:26:45;5.05;;;1.00;;
60292;SDS011;52402;52.670;6.750;2022-09-13T13:29:28;3.72;;;1.13;;
60292;SDS011;52402;52.670;6.750;2022-09-13T13:42:22;6.30;;;1.40;;
60292;SDS011;52402;52.670;6.750;2022-09-13T13:49:49;6.22;;;1.63;;
60292;SDS011;52402;52.670;6.750;2022-09-13T13:57:48;5.13;;;1.10;;
60292;SDS011;52402;52.670;6.750;2022-09-13T14:00:26;6.95;;;1.50;;
60292;SDS011;52402;52.670;6.750;2022-09-13T14:16:59;5.45;;;1.42;;
60292;SDS011;52402;52.670;6.750;2022-09-13T14:19:30;5.80;;;1.30;;
60292;SDS011;52402;52.670;6.750;2022-09-13T14:22:05;3.85;;;1.10;;
60292;SDS011;52402;52.670;6.750;2022-09-13T14:24:38;3.13;;;0.88;;
60292;SDS011;52402;52.670;6.750;2022-09-13T14:27:12;5.40;;;1.42;;
60292;SDS011;52402;52.670;6.750;2022-09-13T14:29:43;4.70;;;1.10;;
60292;SDS011;52402;52.670;6.750;2022-09-13T14:34:48;4.53;;;1.23;;
60292;SDS011;52402;52.670;6.750;2022-09-13T14:37:18;3.25;;;0.90;;
60292;SDS011;52402;52.670;6.750;2022-09-13T14:39:53;5.10;;;1.15;;
60292;SDS011;52402;52.670;6.750;2022-09-13T14:42:20;5.82;;;1.48;;
60292;SDS011;52402;52.670;6.750;2022-09-13T14:44:46;5.82;;;1.35;;
60292;SDS011;52402;52.670;6.750;2022-09-13T14:49:48;8.05;;;2.00;;
60292;SDS011;52402;52.670;6.750;2022-09-13T14:53:00;4.85;;;1.40;;
60292;SDS011;52402;52.670;6.750;2022-09-13T14:55:19;6.15;;;1.00;;
60292;SDS011;52402;52.670;6.750;2022-09-13T14:57:51;4.85;;;1.15;;
60292;SDS011;52402;52.670;6.750;2022-09-13T15:00:22;4.47;;;1.27;;
60292;SDS011;52402;52.670;6.750;2022-09-13T15:02:57;5.57;;;1.10;;
60292;SDS011;52402;52.670;6.750;2022-09-13T15:05:26;5.05;;;1.08;;
60292;SDS011;52402;52.670;6.750;2022-09-13T15:07:55;8.50;;;1.88;;
60292;SDS011;52402;52.670;6.750;2022-09-13T15:12:50;6.60;;;1.38;;
60292;SDS011;52402;52.670;6.750;2022-09-13T15:15:34;5.15;;;1.40;;
60292;SDS011;52402;52.670;6.750;2022-09-13T15:25:45;6.68;;;1.10;;
60292;SDS011;52402;52.670;6.750;2022-09-13T15:28:22;5.63;;;1.30;;
60292;SDS011;52402;52.670;6.750;2022-09-13T15:30:50;5.97;;;1.20;;
60292;SDS011;52402;52.670;6.750;2022-09-13T15:33:21;4.38;;;1.05;;
60292;SDS011;52402;52.670;6.750;2022-09-13T15:35:49;5.40;;;1.40;;
60292;SDS011;52402;52.670;6.750;2022-09-13T15:38:35;5.70;;;1.20;;
60292;SDS011;52402;52.670;6.750;2022-09-13T15:43:35;5.93;;;1.20;;
60292;SDS011;52402;52.670;6.750;2022-09-13T15:46:01;5.22;;;1.30;;
60292;SDS011;52402;52.670;6.750;2022-09-13T15:48:29;5.85;;;1.15;;
60292;SDS011;52402;52.670;6.750;2022-09-13T15:51:04;6.10;;;1.73;;
60292;SDS011;52402;52.670;6.750;2022-09-13T15:53:31;5.40;;;1.10;;
60292;SDS011;52402;52.670;6.750;2022-09-13T15:55:57;5.57;;;1.30;;
60292;SDS011;52402;52.670;6.750;2022-09-13T15:58:26;5.72;;;1.35;;
60292;SDS011;52402;52.670;6.750;2022-09-13T16:00:52;5.68;;;1.27;;
60292;SDS011;52402;52.670;6.750;2022-09-13T16:03:17;5.53;;;1.25;;
60292;SDS011;52402;52.670;6.750;2022-09-13T16:05:43;6.93;;;1.70;;
60292;SDS011;52402;52.670;6.750;2022-09-13T16:08:09;6.25;;;1.42;;
60292;SDS011;52402;52.670;6.750;2022-09-13T16:10:35;6.35;;;1.60;;
60292;SDS011;52402;52.670;6.750;2022-09-13T16:13:01;6.55;;;1.52;;
60292;SDS011;52402;52.670;6.750;2022-09-13T16:15:27;7.22;;;1.50;;
60292;SDS011;52402;52.670;6.750;2022-09-13T16:17:53;7.65;;;1.40;;
60292;SDS011;52402;52.670;6.750;2022-09-13T16:20:18;6.55;;;1.52;;
60292;SDS011;52402;52.670;6.750;2022-09-13T16:22:44;8.13;;;1.40;;
60292;SDS011;52402;52.670;6.750;2022-09-13T16:25:11;7.22;;;1.65;;
60292;SDS011;52402;52.670;6.750;2022-09-13T16:30:07;9.00;;;1.65;;
60292;SDS011;52402;52.670;6.750;2022-09-13T16:32:34;5.63;;;1.40;;
60292;SDS011;52402;52.670;6.750;2022-09-13T16:35:00;6.22;;;1.40;;
60292;SDS011;52402;52.670;6.750;2022-09-13T16:37:26;6.97;;;1.75;;
60292;SDS011;52402;52.670;6.750;2022-09-13T16:39:54;6.40;;;1.73;;
60292;SDS011;52402;52.670;6.750;2022-09-13T16:42:21;7.75;;;1.50;;
60292;SDS011;52402;52.670;6.750;2022-09-13T16:44:47;7.75;;;1.58;;
60292;SDS011;52402;52.670;6.750;2022-09-13T16:47:13;8.57;;;1.70;;
60292;SDS011;52402;52.670;6.750;2022-09-13T16:49:39;7.43;;;1.77;;
60292;SDS011;52402;52.670;6.750;2022-09-13T16:52:05;7.80;;;1.88;;
60292;SDS011;52402;52.670;6.750;2022-09-13T16:54:30;6.85;;;1.90;;
60292;SDS011;52402;52.670;6.750;2022-09-13T16:56:59;6.47;;;1.50;;
60292;SDS011;52402;52.670;6.750;2022-09-13T16:59:26;9.43;;;1.70;;
60292;SDS011;52402;52.670;6.750;2022-09-13T17:01:52;8.40;;;1.95;;
60292;SDS011;52402;52.670;6.750;2022-09-13T17:04:17;7.30;;;1.55;;
60292;SDS011;52402;52.670;6.750;2022-09-13T17:06:43;7.00;;;1.70;;
60292;SDS011;52402;52.670;6.750;2022-09-13T17:09:09;7.13;;;1.77;;
60292;SDS011;52402;52.670;6.750;2022-09-13T17:11:36;7.97;;;1.80;;
60292;SDS011;52402;52.670;6.750;2022-09-13T17:14:04;9.43;;;1.90;;
60292;SDS011;52402;52.670;6.750;2022-09-13T17:16:36;6.50;;;1.50;;
60292;SDS011;52402;52.670;6.750;2022-09-13T17:19:05;8.40;;;1.70;;
60292;SDS011;52402;52.670;6.750;2022-09-13T17:21:33;8.55;;;2.00;;
60292;SDS011;52402;52.670;6.750;2022-09-13T17:23:59;7.68;;;1.80;;
60292;SDS011;52402;52.670;6.750;2022-09-13T17:26:25;6.45;;;1.75;;
60292;SDS011;52402;52.670;6.750;2022-09-13T17:28:51;6.80;;;1.58;;
60292;SDS011;52402;52.670;6.750;2022-09-13T17:31:17;5.57;;;1.50;;
60292;SDS011;52402;52.670;6.750;2022-09-13T17:33:43;8.55;;;1.73;;
60292;SDS011;52402;52.670;6.750;2022-09-13T17:36:11;7.03;;;1.85;;
60292;SDS011;52402;52.670;6.750;2022-09-13T17:38:38;8.82;;;1.77;;
60292;SDS011;52402;52.670;6.750;2022-09-13T17:43:33;8.05;;;1.60;;
60292;SDS011;52402;52.670;6.750;2022-09-13T17:46:02;7.32;;;1.55;;
60292;SDS011;52402;52.670;6.750;2022-09-13T17:48:29;6.47;;;1.70;;
60292;SDS011;52402;52.670;6.750;2022-09-13T17:51:08;9.02;;;1.77;;
60292;SDS011;52402;52.670;6.750;2022-09-13T17:53:39;6.15;;;1.52;;
60292;SDS011;52402;52.670;6.750;2022-09-13T17:56:06;8.23;;;1.73;;
60292;SDS011;52402;52.670;6.750;2022-09-13T17:58:32;8.55;;;2.00;;
60292;SDS011;52402;52.670;6.750;2022-09-13T18:01:07;7.05;;;1.52;;
60292;SDS011;52402;52.670;6.750;2022-09-13T18:03:33;6.72;;;1.60;;
60292;SDS011;52402;52.670;6.750;2022-09-13T18:06:01;5.88;;;1.60;;
60292;SDS011;52402;52.670;6.750;2022-09-13T18:08:28;6.95;;;1.40;;
60292;SDS011;52402;52.670;6.750;2022-09-13T18:11:02;7.50;;;1.85;;
60292;SDS011;52402;52.670;6.750;2022-09-13T18:13:34;9.75;;;1.70;;
60292;SDS011;52402;52.670;6.750;2022-09-13T18:16:00;6.35;;;1.70;;
60292;SDS011;52402;52.670;6.750;2022-09-13T18:18:32;10.90;;;2.13;;
60292;SDS011;52402;52.670;6.750;2022-09-13T18:20:59;6.53;;;1.50;;
60292;SDS011;52402;52.670;6.750;2022-09-13T18:23:25;5.93;;;1.50;;
60292;SDS011;52402;52.670;6.750;2022-09-13T18:25:56;6.63;;;1.52;;
60292;SDS011;52402;52.670;6.750;2022-09-13T18:28:23;7.97;;;1.60;;
60292;SDS011;52402;52.670;6.750;2022-09-13T18:30:53;8.57;;;1.58;;
60292;SDS011;52402;52.670;6.750;2022-09-13T18:33:20;8.13;;;1.65;;
60292;SDS011;52402;52.670;6.750;2022-09-13T18:36:04;7.40;;;1.77;;
60292;SDS011;52402;52.670;6.750;2022-09-13T18:38:42;7.45;;;1.50;;
60292;SDS011;52402;52.670;6.750;2022-09-13T18:41:10;8.75;;;1.70;;
60292;SDS011;52402;52.670;6.750;2022-09-13T18:43:47;9.48;;;2.10;;
60292;SDS011;52402;52.670;6.750;2022-09-13T18:46:16;9.05;;;1.67;;
60292;SDS011;52402;52.670;6.750;2022-09-13T18:51:17;7.90;;;2.05;;
60292;SDS011;52402;52.670;6.750;2022-09-13T18:53:45;7.97;;;1.70;;